sensor_id;sensor_type;location;lat;lon;timestamp;P1;durP1;ratioP1;P2;durP2;ratioP2
71091;SDS011;58751;50.708;7.134;2022-09-01T00:02:05;3.17;;;2.87;;
71091;SDS011;58751;50.708;7.134;2022-09-01T00:04:30;4.40;;;3.07;;
71091;SDS011;58751;50.708;7.134;2022-09-01T00:06:57;3.07;;;2.87;;
71091;SDS011;58751;50.708;7.134;2022-09-01T00:09:22;3.20;;;3.00;;
71091;SDS011;58751;50.708;7.134;2022-09-01T00:11:49;2.90;;;2.70;;
71091;SDS011;58751;50.708;7.134;2022-09-01T00:14:14;3.10;;;2.90;;
71091;SDS011;58751;50.708;7.134;2022-09-01T00:16:40;3.30;;;3.10;;
71091;SDS011;58751;50.708;7.134;2022-09-01T00:19:05;2.57;;;2.47;;
71091;SDS011;58751;50.708;7.134;2022-09-01T00:21:31;3.00;;;2.70;;
71091;SDS011;58751;50.708;7.134;2022-09-01T00:23:59;4.40;;;2.67;;
71091;SDS011;58751;50.708;7.134;2022-09-01T00:26:24;4.83;;;2.80;;
71091;SDS011;58751;50.708;7.134;2022-09-01T00:28:49;2.47;;;2.30;;
71091;SDS011;58751;50.708;7.134;2022-09-01T00:31:15;3.37;;;3.17;;
71091;SDS011;58751;50.708;7.134;2022-09-01T00:33:40;4.30;;;3.03;;
71091;SDS011;58751;50.708;7.134;2022-09-01T00:36:06;3.23;;;2.67;;
71091;SDS011;58751;50.708;7.134;2022-09-01T00:38:32;3.13;;;2.83;;
71091;SDS011;58751;50.708;7.134;2022-09-01T00:40:58;2.87;;;2.67;;
71091;SDS011;58751;50.708;7.134;2022-09-01T00:43:35;2.70;;;2.50;;
71091;SDS011;58751;50.708;7.134;2022-09-01T00:46:00;3.23;;;2.90;;
71091;SDS011;58751;50.708;7.134;2022-09-01T00:48:26;3.40;;;3.10;;
71091;SDS011;58751;50.708;7.134;2022-09-01T00:50:51;2.90;;;2.70;;
71091;SDS011;58751;50.708;7.134;2022-09-01T00:53:16;2.40;;;2.30;;
71091;SDS011;58751;50.708;7.134;2022-09-01T00:55:42;3.33;;;2.80;;
71091;SDS011;58751;50.708;7.134;2022-09-01T00:58:08;4.67;;;3.03;;
71091;SDS011;58751;50.708;7.134;2022-09-01T01:00:34;2.83;;;2.63;;
71091;SDS011;58751;50.708;7.134;2022-09-01T01:03:00;2.80;;;2.60;;
71091;SDS011;58751;50.708;7.134;2022-09-01T01:05:31;3.23;;;3.03;;
71091;SDS011;58751;50.708;7.134;2022-09-01T01:07:57;3.47;;;3.17;;
71091;SDS011;58751;50.708;7.134;2022-09-01T01:10:23;3.40;;;3.10;;
71091;SDS011;58751;50.708;7.134;2022-09-01T01:12:48;3.43;;;3.13;;
71091;SDS011;58751;50.708;7.134;2022-09-01T01:15:15;3.03;;;2.83;;
71091;SDS011;58751;50.708;7.134;2022-09-01T01:17:41;3.27;;;2.97;;
71091;SDS011;58751;50.708;7.134;2022-09-01T01:20:06;3.60;;;2.90;;
71091;SDS011;58751;50.708;7.134;2022-09-01T01:22:36;3.27;;;2.97;;
71091;SDS011;58751;50.708;7.134;2022-09-01T01:25:05;3.70;;;3.40;;
71091;SDS011;58751;50.708;7.134;2022-09-01T01:27:31;6.13;;;3.20;;
71091;SDS011;58751;50.708;7.134;2022-09-01T01:29:56;3.23;;;3.03;;
71091;SDS011;58751;50.708;7.134;2022-09-01T01:32:22;4.40;;;3.10;;
71091;SDS011;58751;50.708;7.134;2022-09-01T01:34:47;3.43;;;3.03;;
71091;SDS011;58751;50.708;7.134;2022-09-01T01:37:12;3.77;;;3.57;;
71091;SDS011;58751;50.708;7.134;2022-09-01T01:39:37;3.93;;;3.63;;
71091;SDS011;58751;50.708;7.134;2022-09-01T01:42:04;3.57;;;3.23;;
71091;SDS011;58751;50.708;7.134;2022-09-01T01:44:29;3.70;;;3.37;;
71091;SDS011;58751;50.708;7.134;2022-09-01T01:46:55;3.57;;;3.37;;
71091;SDS011;58751;50.708;7.134;2022-09-01T01:49:21;3.20;;;3.00;;
71091;SDS011;58751;50.708;7.134;2022-09-01T01:51:47;6.70;;;3.40;;
71091;SDS011;58751;50.708;7.134;2022-09-01T01:54:13;3.70;;;3.40;;
71091;SDS011;58751;50.708;7.134;2022-09-01T01:56:38;3.43;;;3.23;;
71091;SDS011;58751;50.708;7.134;2022-09-01T01:59:05;5.60;;;4.23;;
71091;SDS011;58751;50.708;7.134;2022-09-01T02:01:30;4.70;;;3.90;;
71091;SDS011;58751;50.708;7.134;2022-09-01T02:03:55;3.80;;;3.60;;
71091;SDS011;58751;50.708;7.134;2022-09-01T02:06:21;5.47;;;3.77;;
71091;SDS011;58751;50.708;7.134;2022-09-01T02:08:47;4.00;;;3.70;;
71091;SDS011;58751;50.708;7.134;2022-09-01T02:11:12;4.13;;;3.73;;
71091;SDS011;58751;50.708;7.134;2022-09-01T02:13:37;4.03;;;3.73;;
71091;SDS011;58751;50.708;7.134;2022-09-01T02:16:05;7.27;;;4.07;;
71091;SDS011;58751;50.708;7.134;2022-09-01T02:18:31;6.03;;;4.37;;
71091;SDS011;58751;50.708;7.134;2022-09-01T02:20:57;3.87;;;3.67;;
71091;SDS011;58751;50.708;7.134;2022-09-01T02:23:22;4.27;;;3.97;;
71091;SDS011;58751;50.708;7.134;2022-09-01T02:25:48;5.10;;;4.70;;
71091;SDS011;58751;50.708;7.134;2022-09-01T02:28:14;4.17;;;3.87;;
71091;SDS011;58751;50.708;7.134;2022-09-01T02:30:39;4.30;;;4.00;;
71091;SDS011;58751;50.708;7.134;2022-09-01T02:33:06;4.07;;;3.77;;
71091;SDS011;58751;50.708;7.134;2022-09-01T02:35:32;4.63;;;4.20;;
71091;SDS011;58751;50.708;7.134;2022-09-01T02:37:57;4.07;;;3.67;;
71091;SDS011;58751;50.708;7.134;2022-09-01T02:40:22;4.20;;;3.90;;
71091;SDS011;58751;50.708;7.134;2022-09-01T02:42:47;4.10;;;3.80;;
71091;SDS011;58751;50.708;7.134;2022-09-01T02:45:12;4.63;;;4.23;;
71091;SDS011;58751;50.708;7.134;2022-09-01T02:47:38;4.20;;;3.70;;
71091;SDS011;58751;50.708;7.134;2022-09-01T02:50:05;3.50;;;3.30;;
71091;SDS011;58751;50.708;7.134;2022-09-01T02:52:30;4.83;;;4.43;;
71091;SDS011;58751;50.708;7.134;2022-09-01T02:54:55;4.37;;;4.07;;
71091;SDS011;58751;50.708;7.134;2022-09-01T02:57:20;4.47;;;4.07;;
71091;SDS011;58751;50.708;7.134;2022-09-01T02:59:46;6.87;;;4.33;;
71091;SDS011;58751;50.708;7.134;2022-09-01T03:02:11;3.93;;;3.63;;
71091;SDS011;58751;50.708;7.134;2022-09-01T03:04:36;4.40;;;4.10;;
71091;SDS011;58751;50.708;7.134;2022-09-01T03:07:03;4.90;;;4.63;;
71091;SDS011;58751;50.708;7.134;2022-09-01T03:09:29;4.37;;;4.07;;
71091;SDS011;58751;50.708;7.134;2022-09-01T03:11:54;5.40;;;4.10;;
71091;SDS011;58751;50.708;7.134;2022-09-01T03:14:20;4.03;;;3.83;;
71091;SDS011;58751;50.708;7.134;2022-09-01T03:16:45;4.60;;;4.30;;
71091;SDS011;58751;50.708;7.134;2022-09-01T03:19:10;3.70;;;3.50;;
71091;SDS011;58751;50.708;7.134;2022-09-01T03:21:36;4.83;;;4.40;;
71091;SDS011;58751;50.708;7.134;2022-09-01T03:24:03;4.30;;;3.60;;
71091;SDS011;58751;50.708;7.134;2022-09-01T03:26:29;4.95;;;4.65;;
71091;SDS011;58751;50.708;7.134;2022-09-01T03:28:55;4.83;;;4.50;;
71091;SDS011;58751;50.708;7.134;2022-09-01T03:31:20;4.97;;;4.37;;
71091;SDS011;58751;50.708;7.134;2022-09-01T03:33:45;4.43;;;4.17;;
71091;SDS011;58751;50.708;7.134;2022-09-01T03:36:11;4.50;;;4.10;;
71091;SDS011;58751;50.708;7.134;2022-09-01T03:38:36;3.53;;;3.30;;
71091;SDS011;58751;50.708;7.134;2022-09-01T03:41:03;3.90;;;3.60;;
71091;SDS011;58751;50.708;7.134;2022-09-01T03:43:29;4.20;;;4.00;;
71091;SDS011;58751;50.708;7.134;2022-09-01T03:45:54;4.50;;;4.20;;
71091;SDS011;58751;50.708;7.134;2022-09-01T03:48:20;5.00;;;4.60;;
71091;SDS011;58751;50.708;7.134;2022-09-01T03:50:45;3.80;;;3.60;;
71091;SDS011;58751;50.708;7.134;2022-09-01T03:53:12;4.07;;;3.87;;
71091;SDS011;58751;50.708;7.134;2022-09-01T03:55:38;4.78;;;4.38;;
71091;SDS011;58751;50.708;7.134;2022-09-01T03:58:05;5.13;;;4.73;;
71091;SDS011;58751;50.708;7.134;2022-09-01T04:00:31;5.28;;;4.88;;
71091;SDS011;58751;50.708;7.134;2022-09-01T04:02:57;4.73;;;4.43;;
71091;SDS011;58751;50.708;7.134;2022-09-01T04:05:23;4.35;;;4.05;;
71091;SDS011;58751;50.708;7.134;2022-09-01T04:07:48;5.10;;;4.70;;
71091;SDS011;58751;50.708;7.134;2022-09-01T04:10:14;6.10;;;4.50;;
71091;SDS011;58751;50.708;7.134;2022-09-01T04:12:39;5.37;;;4.97;;
71091;SDS011;58751;50.708;7.134;2022-09-01T04:15:07;4.57;;;4.17;;
71091;SDS011;58751;50.708;7.134;2022-09-01T04:17:32;4.70;;;4.30;;
71091;SDS011;58751;50.708;7.134;2022-09-01T04:19:57;4.80;;;4.50;;
71091;SDS011;58751;50.708;7.134;2022-09-01T04:22:23;4.40;;;4.10;;
71091;SDS011;58751;50.708;7.134;2022-09-01T04:24:48;4.90;;;4.10;;
71091;SDS011;58751;50.708;7.134;2022-09-01T04:27:14;4.30;;;4.00;;
71091;SDS011;58751;50.708;7.134;2022-09-01T04:29:39;6.83;;;4.77;;
71091;SDS011;58751;50.708;7.134;2022-09-01T04:32:07;4.97;;;4.63;;
71091;SDS011;58751;50.708;7.134;2022-09-01T04:34:34;4.68;;;4.35;;
71091;SDS011;58751;50.708;7.134;2022-09-01T04:36:59;6.53;;;4.70;;
71091;SDS011;58751;50.708;7.134;2022-09-01T04:39:24;4.40;;;4.10;;
71091;SDS011;58751;50.708;7.134;2022-09-01T04:41:50;6.07;;;5.47;;
71091;SDS011;58751;50.708;7.134;2022-09-01T04:44:15;9.20;;;6.00;;
71091;SDS011;58751;50.708;7.134;2022-09-01T04:46:41;7.50;;;5.43;;
71091;SDS011;58751;50.708;7.134;2022-09-01T04:49:08;5.50;;;5.00;;
71091;SDS011;58751;50.708;7.134;2022-09-01T04:51:34;6.20;;;5.60;;
71091;SDS011;58751;50.708;7.134;2022-09-01T04:54:01;6.47;;;5.78;;
71091;SDS011;58751;50.708;7.134;2022-09-01T04:56:26;5.83;;;4.83;;
71091;SDS011;58751;50.708;7.134;2022-09-01T04:58:52;7.37;;;6.10;;
71091;SDS011;58751;50.708;7.134;2022-09-01T05:01:18;5.20;;;4.77;;
71091;SDS011;58751;50.708;7.134;2022-09-01T05:03:43;6.57;;;5.30;;
71091;SDS011;58751;50.708;7.134;2022-09-01T05:06:13;5.30;;;4.80;;
71091;SDS011;58751;50.708;7.134;2022-09-01T05:08:38;5.57;;;5.15;;
71091;SDS011;58751;50.708;7.134;2022-09-01T05:11:03;5.73;;;5.23;;
71091;SDS011;58751;50.708;7.134;2022-09-01T05:13:28;5.63;;;5.13;;
71091;SDS011;58751;50.708;7.134;2022-09-01T05:16:04;6.10;;;5.60;;
71091;SDS011;58751;50.708;7.134;2022-09-01T05:18:29;9.75;;;5.72;;
71091;SDS011;58751;50.708;7.134;2022-09-01T05:20:54;5.63;;;5.13;;
71091;SDS011;58751;50.708;7.134;2022-09-01T05:23:21;6.80;;;4.70;;
71091;SDS011;58751;50.708;7.134;2022-09-01T05:25:47;6.00;;;4.75;;
71091;SDS011;58751;50.708;7.134;2022-09-01T05:28:13;5.30;;;4.90;;
71091;SDS011;58751;50.708;7.134;2022-09-01T05:30:39;6.20;;;5.63;;
71091;SDS011;58751;50.708;7.134;2022-09-01T05:33:05;6.60;;;4.60;;
71091;SDS011;58751;50.708;7.134;2022-09-01T05:35:30;5.73;;;4.80;;
71091;SDS011;58751;50.708;7.134;2022-09-01T05:37:55;5.80;;;5.20;;
71091;SDS011;58751;50.708;7.134;2022-09-01T05:40:22;6.67;;;6.10;;
71091;SDS011;58751;50.708;7.134;2022-09-01T05:42:47;6.90;;;4.80;;
71091;SDS011;58751;50.708;7.134;2022-09-01T05:45:12;5.57;;;4.57;;
71091;SDS011;58751;50.708;7.134;2022-09-01T05:47:37;7.70;;;5.10;;
71091;SDS011;58751;50.708;7.134;2022-09-01T05:50:03;6.07;;;4.90;;
71091;SDS011;58751;50.708;7.134;2022-09-01T05:52:29;4.40;;;4.10;;
71091;SDS011;58751;50.708;7.134;2022-09-01T05:54:57;5.70;;;5.10;;
71091;SDS011;58751;50.708;7.134;2022-09-01T05:57:23;5.03;;;3.97;;
71091;SDS011;58751;50.708;7.134;2022-09-01T05:59:49;4.70;;;4.23;;
71091;SDS011;58751;50.708;7.134;2022-09-01T06:02:14;4.63;;;4.23;;
71091;SDS011;58751;50.708;7.134;2022-09-01T06:04:39;4.10;;;3.80;;
71091;SDS011;58751;50.708;7.134;2022-09-01T06:07:04;4.00;;;3.70;;
71091;SDS011;58751;50.708;7.134;2022-09-01T06:09:30;4.70;;;4.30;;
71091;SDS011;58751;50.708;7.134;2022-09-01T06:11:55;7.00;;;4.20;;
71091;SDS011;58751;50.708;7.134;2022-09-01T06:14:21;4.50;;;4.10;;
71091;SDS011;58751;50.708;7.134;2022-09-01T06:16:47;5.50;;;4.40;;
71091;SDS011;58751;50.708;7.134;2022-09-01T06:19:12;4.87;;;4.37;;
71091;SDS011;58751;50.708;7.134;2022-09-01T06:21:38;5.20;;;4.13;;
71091;SDS011;58751;50.708;7.134;2022-09-01T06:24:03;2.83;;;2.63;;
71091;SDS011;58751;50.708;7.134;2022-09-01T06:26:29;3.50;;;3.20;;
71091;SDS011;58751;50.708;7.134;2022-09-01T06:28:55;3.63;;;2.87;;
71091;SDS011;58751;50.708;7.134;2022-09-01T06:31:23;2.60;;;2.40;;
71091;SDS011;58751;50.708;7.134;2022-09-01T06:33:49;2.60;;;2.50;;
71091;SDS011;58751;50.708;7.134;2022-09-01T06:36:15;2.97;;;2.70;;
71091;SDS011;58751;50.708;7.134;2022-09-01T06:38:40;3.83;;;3.20;;
71091;SDS011;58751;50.708;7.134;2022-09-01T06:41:05;3.20;;;3.00;;
71091;SDS011;58751;50.708;7.134;2022-09-01T06:43:30;4.40;;;3.27;;
71091;SDS011;58751;50.708;7.134;2022-09-01T06:45:59;3.33;;;3.07;;
71091;SDS011;58751;50.708;7.134;2022-09-01T06:48:26;3.13;;;2.93;;
71091;SDS011;58751;50.708;7.134;2022-09-01T06:50:51;3.07;;;2.77;;
71091;SDS011;58751;50.708;7.134;2022-09-01T06:53:17;3.43;;;2.10;;
71091;SDS011;58751;50.708;7.134;2022-09-01T06:55:42;4.07;;;2.80;;
71091;SDS011;58751;50.708;7.134;2022-09-01T06:58:08;3.00;;;2.80;;
71091;SDS011;58751;50.708;7.134;2022-09-01T07:00:34;6.40;;;2.60;;
71091;SDS011;58751;50.708;7.134;2022-09-01T07:03:00;2.50;;;2.30;;
71091;SDS011;58751;50.708;7.134;2022-09-01T07:05:26;2.30;;;2.20;;
71091;SDS011;58751;50.708;7.134;2022-09-01T07:07:53;3.67;;;2.57;;
71091;SDS011;58751;50.708;7.134;2022-09-01T07:10:18;3.37;;;2.40;;
71091;SDS011;58751;50.708;7.134;2022-09-01T07:12:44;2.90;;;2.07;;
71091;SDS011;58751;50.708;7.134;2022-09-01T07:15:09;3.40;;;1.67;;
71091;SDS011;58751;50.708;7.134;2022-09-01T07:17:35;2.17;;;1.90;;
71091;SDS011;58751;50.708;7.134;2022-09-01T07:20:00;2.40;;;2.20;;
71091;SDS011;58751;50.708;7.134;2022-09-01T07:22:26;6.40;;;1.83;;
71091;SDS011;58751;50.708;7.134;2022-09-01T07:24:52;3.27;;;1.60;;
71091;SDS011;58751;50.708;7.134;2022-09-01T07:27:17;3.90;;;1.80;;
71091;SDS011;58751;50.708;7.134;2022-09-01T07:29:42;4.30;;;2.17;;
71091;SDS011;58751;50.708;7.134;2022-09-01T07:32:07;3.00;;;1.90;;
71091;SDS011;58751;50.708;7.134;2022-09-01T07:34:33;1.90;;;1.80;;
71091;SDS011;58751;50.708;7.134;2022-09-01T07:36:58;2.53;;;1.63;;
71091;SDS011;58751;50.708;7.134;2022-09-01T07:39:24;2.60;;;1.70;;
71091;SDS011;58751;50.708;7.134;2022-09-01T07:41:50;2.37;;;2.17;;
71091;SDS011;58751;50.708;7.134;2022-09-01T07:44:15;1.70;;;1.60;;
71091;SDS011;58751;50.708;7.134;2022-09-01T07:46:40;2.43;;;2.10;;
71091;SDS011;58751;50.708;7.134;2022-09-01T07:49:06;2.60;;;1.90;;
71091;SDS011;58751;50.708;7.134;2022-09-01T07:51:31;4.93;;;1.67;;
71091;SDS011;58751;50.708;7.134;2022-09-01T07:53:56;2.07;;;1.97;;
71091;SDS011;58751;50.708;7.134;2022-09-01T07:56:24;3.70;;;1.70;;
71091;SDS011;58751;50.708;7.134;2022-09-01T07:58:50;4.17;;;1.90;;
71091;SDS011;58751;50.708;7.134;2022-09-01T08:01:17;3.57;;;1.80;;
71091;SDS011;58751;50.708;7.134;2022-09-01T08:03:44;2.60;;;2.17;;
71091;SDS011;58751;50.708;7.134;2022-09-01T08:06:10;2.17;;;1.90;;
71091;SDS011;58751;50.708;7.134;2022-09-01T08:08:36;2.00;;;1.73;;
71091;SDS011;58751;50.708;7.134;2022-09-01T08:11:02;1.97;;;1.80;;
71091;SDS011;58751;50.708;7.134;2022-09-01T08:13:29;2.50;;;1.90;;
71091;SDS011;58751;50.708;7.134;2022-09-01T08:15:54;2.00;;;1.77;;
71091;SDS011;58751;50.708;7.134;2022-09-01T08:18:19;3.33;;;1.80;;
71091;SDS011;58751;50.708;7.134;2022-09-01T08:20:44;2.73;;;1.97;;
71091;SDS011;58751;50.708;7.134;2022-09-01T08:23:10;2.60;;;1.60;;
71091;SDS011;58751;50.708;7.134;2022-09-01T08:25:36;2.40;;;1.87;;
71091;SDS011;58751;50.708;7.134;2022-09-01T08:28:01;2.40;;;1.97;;
71091;SDS011;58751;50.708;7.134;2022-09-01T08:30:28;2.40;;;2.00;;
71091;SDS011;58751;50.708;7.134;2022-09-01T08:32:54;2.10;;;1.60;;
71091;SDS011;58751;50.708;7.134;2022-09-01T08:35:19;3.30;;;1.80;;
71091;SDS011;58751;50.708;7.134;2022-09-01T08:37:45;1.83;;;1.67;;
71091;SDS011;58751;50.708;7.134;2022-09-01T08:40:11;4.20;;;1.80;;
71091;SDS011;58751;50.708;7.134;2022-09-01T08:42:41;3.60;;;1.60;;
71091;SDS011;58751;50.708;7.134;2022-09-01T08:45:09;1.97;;;1.67;;
71091;SDS011;58751;50.708;7.134;2022-09-01T08:47:38;5.80;;;5.23;;
71091;SDS011;58751;50.708;7.134;2022-09-01T08:50:03;3.77;;;2.00;;
71091;SDS011;58751;50.708;7.134;2022-09-01T08:52:30;3.60;;;2.10;;
71091;SDS011;58751;50.708;7.134;2022-09-01T08:54:56;1.80;;;1.70;;
71091;SDS011;58751;50.708;7.134;2022-09-01T08:57:23;2.83;;;1.70;;
71091;SDS011;58751;50.708;7.134;2022-09-01T08:59:49;2.07;;;1.60;;
71091;SDS011;58751;50.708;7.134;2022-09-01T09:02:20;2.27;;;1.67;;
71091;SDS011;58751;50.708;7.134;2022-09-01T09:04:51;1.97;;;1.77;;
71091;SDS011;58751;50.708;7.134;2022-09-01T09:07:19;3.20;;;1.70;;
71091;SDS011;58751;50.708;7.134;2022-09-01T09:09:48;3.90;;;1.90;;
71091;SDS011;58751;50.708;7.134;2022-09-01T09:12:25;2.97;;;1.70;;
71091;SDS011;58751;50.708;7.134;2022-09-01T09:14:57;1.60;;;1.50;;
71091;SDS011;58751;50.708;7.134;2022-09-01T09:17:24;2.50;;;1.60;;
71091;SDS011;58751;50.708;7.134;2022-09-01T09:19:54;2.00;;;1.73;;
71091;SDS011;58751;50.708;7.134;2022-09-01T09:22:19;1.60;;;1.50;;
71091;SDS011;58751;50.708;7.134;2022-09-01T09:24:45;2.80;;;2.10;;
71091;SDS011;58751;50.708;7.134;2022-09-01T09:27:15;2.60;;;1.70;;
71091;SDS011;58751;50.708;7.134;2022-09-01T09:29:40;5.43;;;2.23;;
71091;SDS011;58751;50.708;7.134;2022-09-01T09:32:07;3.40;;;1.67;;
71091;SDS011;58751;50.708;7.134;2022-09-01T09:34:33;2.40;;;1.67;;
71091;SDS011;58751;50.708;7.134;2022-09-01T09:37:14;2.50;;;1.70;;
71091;SDS011;58751;50.708;7.134;2022-09-01T09:39:39;2.80;;;1.60;;
71091;SDS011;58751;50.708;7.134;2022-09-01T09:42:06;2.27;;;1.70;;
71091;SDS011;58751;50.708;7.134;2022-09-01T09:44:38;2.73;;;1.90;;
71091;SDS011;58751;50.708;7.134;2022-09-01T09:47:04;2.07;;;1.57;;
71091;SDS011;58751;50.708;7.134;2022-09-01T09:49:30;1.60;;;1.50;;
71091;SDS011;58751;50.708;7.134;2022-09-01T09:51:56;1.97;;;1.87;;
71091;SDS011;58751;50.708;7.134;2022-09-01T09:54:24;2.90;;;1.80;;
71091;SDS011;58751;50.708;7.134;2022-09-01T09:57:01;2.20;;;1.67;;
71091;SDS011;58751;50.708;7.134;2022-09-01T09:59:27;1.90;;;1.80;;
71091;SDS011;58751;50.708;7.134;2022-09-01T10:01:56;12.90;;;2.00;;
71091;SDS011;58751;50.708;7.134;2022-09-01T10:04:32;2.03;;;1.93;;
71091;SDS011;58751;50.708;7.134;2022-09-01T10:06:58;2.40;;;1.90;;
71091;SDS011;58751;50.708;7.134;2022-09-01T10:09:34;2.10;;;1.87;;
71091;SDS011;58751;50.708;7.134;2022-09-01T10:11:59;3.53;;;2.17;;
71091;SDS011;58751;50.708;7.134;2022-09-01T10:14:26;2.23;;;2.00;;
71091;SDS011;58751;50.708;7.134;2022-09-01T10:16:53;3.17;;;2.37;;
71091;SDS011;58751;50.708;7.134;2022-09-01T10:19:21;3.73;;;1.90;;
71091;SDS011;58751;50.708;7.134;2022-09-01T10:21:46;2.80;;;2.17;;
71091;SDS011;58751;50.708;7.134;2022-09-01T10:24:17;2.30;;;2.10;;
71091;SDS011;58751;50.708;7.134;2022-09-01T10:26:44;3.80;;;2.57;;
71091;SDS011;58751;50.708;7.134;2022-09-01T10:29:11;1.90;;;1.80;;
71091;SDS011;58751;50.708;7.134;2022-09-01T10:31:38;2.23;;;2.13;;
71091;SDS011;58751;50.708;7.134;2022-09-01T10:34:04;2.37;;;2.17;;
71091;SDS011;58751;50.708;7.134;2022-09-01T10:36:30;2.27;;;1.97;;
71091;SDS011;58751;50.708;7.134;2022-09-01T10:38:55;3.73;;;2.27;;
71091;SDS011;58751;50.708;7.134;2022-09-01T10:44:08;3.53;;;2.80;;
71091;SDS011;58751;50.708;7.134;2022-09-01T10:49:12;3.30;;;2.53;;
71091;SDS011;58751;50.708;7.134;2022-09-01T10:51:43;2.90;;;2.70;;
71091;SDS011;58751;50.708;7.134;2022-09-01T10:54:08;3.10;;;2.73;;
71091;SDS011;58751;50.708;7.134;2022-09-01T10:56:53;2.77;;;2.30;;
71091;SDS011;58751;50.708;7.134;2022-09-01T10:59:24;2.47;;;2.27;;
71091;SDS011;58751;50.708;7.134;2022-09-01T11:07:29;7.47;;;2.60;;
71091;SDS011;58751;50.708;7.134;2022-09-01T11:10:06;2.47;;;2.27;;
71091;SDS011;58751;50.708;7.134;2022-09-01T11:12:38;3.67;;;2.50;;
71091;SDS011;58751;50.708;7.134;2022-09-01T11:17:55;2.27;;;2.10;;
71091;SDS011;58751;50.708;7.134;2022-09-01T11:20:21;4.70;;;2.43;;
71091;SDS011;58751;50.708;7.134;2022-09-01T11:22:57;2.40;;;2.30;;
71091;SDS011;58751;50.708;7.134;2022-09-01T11:25:34;4.83;;;2.80;;
71091;SDS011;58751;50.708;7.134;2022-09-01T11:30:50;3.33;;;2.83;;
71091;SDS011;58751;50.708;7.134;2022-09-01T11:33:24;2.80;;;2.60;;
71091;SDS011;58751;50.708;7.134;2022-09-01T11:35:56;2.43;;;2.33;;
71091;SDS011;58751;50.708;7.134;2022-09-01T11:38:22;2.77;;;2.67;;
71091;SDS011;58751;50.708;7.134;2022-09-01T11:40:53;3.43;;;3.23;;
71091;SDS011;58751;50.708;7.134;2022-09-01T11:43:18;3.10;;;2.90;;
71091;SDS011;58751;50.708;7.134;2022-09-01T11:45:49;3.00;;;2.80;;
71091;SDS011;58751;50.708;7.134;2022-09-01T11:48:18;2.97;;;2.70;;
71091;SDS011;58751;50.708;7.134;2022-09-01T11:50:45;4.20;;;2.60;;
71091;SDS011;58751;50.708;7.134;2022-09-01T11:53:20;3.27;;;2.97;;
71091;SDS011;58751;50.708;7.134;2022-09-01T11:55:47;3.20;;;3.03;;
71091;SDS011;58751;50.708;7.134;2022-09-01T11:58:14;3.50;;;3.20;;
71091;SDS011;58751;50.708;7.134;2022-09-01T12:00:52;2.97;;;2.77;;
71091;SDS011;58751;50.708;7.134;2022-09-01T12:03:19;3.23;;;3.03;;
71091;SDS011;58751;50.708;7.134;2022-09-01T12:05:47;3.60;;;3.40;;
71091;SDS011;58751;50.708;7.134;2022-09-01T12:08:14;4.53;;;2.83;;
71091;SDS011;58751;50.708;7.134;2022-09-01T12:10:39;4.23;;;3.90;;
71091;SDS011;58751;50.708;7.134;2022-09-01T12:13:06;3.07;;;2.87;;
71091;SDS011;58751;50.708;7.134;2022-09-01T12:15:32;3.67;;;3.30;;
71091;SDS011;58751;50.708;7.134;2022-09-01T12:18:08;3.00;;;2.80;;
71091;SDS011;58751;50.708;7.134;2022-09-01T12:20:34;3.03;;;2.83;;
71091;SDS011;58751;50.708;7.134;2022-09-01T12:23:01;3.50;;;3.10;;
71091;SDS011;58751;50.708;7.134;2022-09-01T12:25:27;3.23;;;2.60;;
71091;SDS011;58751;50.708;7.134;2022-09-01T12:27:52;2.73;;;2.63;;
71091;SDS011;58751;50.708;7.134;2022-09-01T12:30:18;3.50;;;3.23;;
71091;SDS011;58751;50.708;7.134;2022-09-01T12:32:43;3.53;;;3.23;;
71091;SDS011;58751;50.708;7.134;2022-09-01T12:35:13;3.20;;;2.90;;
71091;SDS011;58751;50.708;7.134;2022-09-01T12:37:39;3.07;;;2.87;;
71091;SDS011;58751;50.708;7.134;2022-09-01T12:40:06;3.20;;;2.80;;
71091;SDS011;58751;50.708;7.134;2022-09-01T12:42:48;3.50;;;2.93;;
71091;SDS011;58751;50.708;7.134;2022-09-01T12:45:14;2.77;;;2.67;;
71091;SDS011;58751;50.708;7.134;2022-09-01T12:47:59;3.07;;;2.80;;
71091;SDS011;58751;50.708;7.134;2022-09-01T12:50:40;4.80;;;3.00;;
71091;SDS011;58751;50.708;7.134;2022-09-01T12:53:13;3.00;;;2.80;;
71091;SDS011;58751;50.708;7.134;2022-09-01T12:55:40;3.17;;;2.87;;
71091;SDS011;58751;50.708;7.134;2022-09-01T12:58:19;2.80;;;2.70;;
71091;SDS011;58751;50.708;7.134;2022-09-01T13:00:52;3.87;;;3.20;;
71091;SDS011;58751;50.708;7.134;2022-09-01T13:03:18;3.00;;;2.80;;
71091;SDS011;58751;50.708;7.134;2022-09-01T13:05:44;3.63;;;3.17;;
71091;SDS011;58751;50.708;7.134;2022-09-01T13:08:11;3.27;;;3.07;;
71091;SDS011;58751;50.708;7.134;2022-09-01T13:10:37;3.63;;;3.33;;
71091;SDS011;58751;50.708;7.134;2022-09-01T13:13:04;3.33;;;3.13;;
71091;SDS011;58751;50.708;7.134;2022-09-01T13:15:30;3.13;;;2.90;;
71091;SDS011;58751;50.708;7.134;2022-09-01T13:17:55;2.50;;;2.30;;
71091;SDS011;58751;50.708;7.134;2022-09-01T13:20:21;2.77;;;2.60;;
71091;SDS011;58751;50.708;7.134;2022-09-01T13:22:46;4.23;;;3.10;;
71091;SDS011;58751;50.708;7.134;2022-09-01T13:25:12;3.10;;;2.90;;
71091;SDS011;58751;50.708;7.134;2022-09-01T13:27:38;4.10;;;3.23;;
71091;SDS011;58751;50.708;7.134;2022-09-01T13:30:05;2.90;;;2.70;;
71091;SDS011;58751;50.708;7.134;2022-09-01T13:32:30;4.10;;;3.10;;
71091;SDS011;58751;50.708;7.134;2022-09-01T13:34:56;4.73;;;2.80;;
71091;SDS011;58751;50.708;7.134;2022-09-01T13:37:21;5.47;;;3.20;;
71091;SDS011;58751;50.708;7.134;2022-09-01T13:39:46;3.27;;;3.03;;
71091;SDS011;58751;50.708;7.134;2022-09-01T13:42:12;3.07;;;2.77;;
71091;SDS011;58751;50.708;7.134;2022-09-01T13:44:37;3.40;;;3.10;;
71091;SDS011;58751;50.708;7.134;2022-09-01T13:47:04;3.90;;;3.50;;
71091;SDS011;58751;50.708;7.134;2022-09-01T13:49:29;3.00;;;2.80;;
71091;SDS011;58751;50.708;7.134;2022-09-01T13:51:54;3.30;;;3.10;;
71091;SDS011;58751;50.708;7.134;2022-09-01T13:54:20;3.10;;;2.90;;
71091;SDS011;58751;50.708;7.134;2022-09-01T13:56:45;3.20;;;3.00;;
71091;SDS011;58751;50.708;7.134;2022-09-01T13:59:10;3.43;;;3.23;;
71091;SDS011;58751;50.708;7.134;2022-09-01T14:01:35;3.27;;;3.07;;
71091;SDS011;58751;50.708;7.134;2022-09-01T14:04:02;4.17;;;3.67;;
71091;SDS011;58751;50.708;7.134;2022-09-01T14:06:27;3.13;;;2.93;;
71091;SDS011;58751;50.708;7.134;2022-09-01T14:08:52;3.37;;;3.17;;
71091;SDS011;58751;50.708;7.134;2022-09-01T14:11:18;3.93;;;2.93;;
71091;SDS011;58751;50.708;7.134;2022-09-01T14:13:43;2.60;;;2.40;;
71091;SDS011;58751;50.708;7.134;2022-09-01T14:16:09;3.40;;;3.20;;
71091;SDS011;58751;50.708;7.134;2022-09-01T14:18:34;3.50;;;3.20;;
71091;SDS011;58751;50.708;7.134;2022-09-01T14:21:01;3.80;;;3.20;;
71091;SDS011;58751;50.708;7.134;2022-09-01T14:23:26;3.27;;;3.03;;
71091;SDS011;58751;50.708;7.134;2022-09-01T14:25:52;4.77;;;3.20;;
71091;SDS011;58751;50.708;7.134;2022-09-01T14:28:18;3.27;;;3.07;;
71091;SDS011;58751;50.708;7.134;2022-09-01T14:30:45;3.37;;;3.07;;
71091;SDS011;58751;50.708;7.134;2022-09-01T14:33:11;3.00;;;2.77;;
71091;SDS011;58751;50.708;7.134;2022-09-01T14:35:36;3.00;;;2.80;;
71091;SDS011;58751;50.708;7.134;2022-09-01T14:38:03;3.67;;;3.37;;
71091;SDS011;58751;50.708;7.134;2022-09-01T14:40:28;2.67;;;2.57;;
71091;SDS011;58751;50.708;7.134;2022-09-01T14:42:53;4.80;;;3.10;;
71091;SDS011;58751;50.708;7.134;2022-09-01T14:45:19;3.07;;;2.77;;
71091;SDS011;58751;50.708;7.134;2022-09-01T14:47:46;3.90;;;2.40;;
71091;SDS011;58751;50.708;7.134;2022-09-01T14:50:11;2.80;;;2.60;;
71091;SDS011;58751;50.708;7.134;2022-09-01T14:52:37;2.90;;;2.70;;
71091;SDS011;58751;50.708;7.134;2022-09-01T14:55:04;3.07;;;2.87;;
71091;SDS011;58751;50.708;7.134;2022-09-01T14:57:29;3.40;;;2.90;;
71091;SDS011;58751;50.708;7.134;2022-09-01T14:59:54;2.97;;;2.77;;
71091;SDS011;58751;50.708;7.134;2022-09-01T15:02:20;2.80;;;2.60;;